Terminal Aerodrome Forecast
Issued by NWS

Home | Current Version | Previous Version | Text Only | Print | Product List | Glossary On
Versions: 1 2 3 4 5 6 7 8 9 10 11 12 13 14 15
000
FTUS41 KLWX 271136
TAFMTN
TAF
KMTN 271136Z 2712/2812 35008KT 5SM RA OVC020
     FM271300 36008KT 5SM -RA OVC020
     FM271400 36009KT 5SM -RA OVC025
     FM271600 36009KT P6SM OVC045
     FM272000 34005KT P6SM BKN110
     FM280100 32009KT P6SM BKN040
     FM280900 33013KT P6SM BKN080=

USA.gov is the U.S. government's official web portal to all federal, state and local government web resources and services.